createdAt,value
2016-11-05T00:01:07.941Z,0
2016-11-05T00:02:18.250Z,0
2016-11-05T00:03:27.925Z,0
2016-11-05T00:04:37.287Z,0
2016-11-05T00:05:47.314Z,0
2016-11-05T00:06:57.346Z,0
2016-11-05T00:08:07.349Z,0
2016-11-05T00:09:17.313Z,0
2016-11-05T00:10:27.596Z,0
2016-11-05T00:11:37.883Z,0
2016-11-05T00:12:48.176Z,0
2016-11-05T00:13:58.132Z,0
2016-11-05T00:15:08.408Z,0
2016-11-05T00:16:18.703Z,0
2016-11-05T00:17:28.678Z,0
2016-11-05T00:18:38.655Z,0
2016-11-05T00:19:48.944Z,0
2016-11-05T00:20:59.227Z,0
2016-11-05T00:22:09.203Z,0
2016-11-05T00:23:19.504Z,0
2016-11-05T00:24:29.461Z,0
2016-11-05T00:25:39.132Z,0
2016-11-05T00:26:49.464Z,0
2016-11-05T00:27:59.418Z,0
2016-11-05T00:29:09.740Z,0
2016-11-05T00:30:19.403Z,0
2016-11-05T00:31:29.416Z,0
2016-11-05T00:32:39.079Z,0
2016-11-05T00:33:49.375Z,0
2016-11-05T00:34:59.666Z,0
2016-11-05T00:36:09.623Z,0
2016-11-05T00:37:19.294Z,0
2016-11-05T00:38:28.954Z,0
2016-11-05T00:39:39.239Z,0
2016-11-05T00:40:49.501Z,0
2016-11-05T00:41:59.472Z,0
2016-11-05T00:43:09.473Z,0
2016-11-05T00:44:19.445Z,0
2016-11-05T00:45:29.762Z,0
2016-11-05T00:46:40.049Z,0
2016-11-05T00:47:50.326Z,0
2016-11-05T00:49:00.626Z,0
2016-11-05T00:50:10.617Z,0
2016-11-05T00:51:20.596Z,0
2016-11-05T00:52:30.247Z,0
2016-11-05T00:53:40.519Z,0
2016-11-05T00:54:50.791Z,0
2016-11-05T00:56:01.068Z,0
2016-11-05T00:57:11.345Z,0
2016-11-05T00:58:21.320Z,0
2016-11-05T00:59:31.600Z,0
2016-11-05T01:00:41.274Z,0
2016-11-05T01:01:51.576Z,0
2016-11-05T01:03:01.844Z,0
2016-11-05T01:04:12.138Z,0
2016-11-05T01:05:22.438Z,0
2016-11-05T01:06:32.710Z,0
2016-11-05T01:07:42.709Z,0
2016-11-05T01:08:52.684Z,0
2016-11-05T01:10:02.950Z,0
2016-11-05T01:11:12.914Z,0
2016-11-05T01:12:23.193Z,0
2016-11-05T01:13:33.482Z,0
2016-11-05T01:14:43.818Z,0
2016-11-05T01:15:53.786Z,0
2016-11-05T01:17:03.785Z,0
2016-11-05T01:18:14.064Z,0
2016-11-05T01:19:24.037Z,0
2016-11-05T01:20:33.998Z,0
2016-11-05T01:21:44.322Z,0
2016-11-05T01:22:54.297Z,0
2016-11-05T01:24:04.617Z,0
2016-11-05T01:25:14.589Z,0
2016-11-05T01:26:24.882Z,0
2016-11-05T01:27:34.556Z,0
2016-11-05T01:28:44.837Z,0
2016-11-05T01:29:54.507Z,0
2016-11-05T01:31:04.782Z,0
2016-11-05T01:32:15.051Z,0
2016-11-05T01:33:25.006Z,0
2016-11-05T01:34:35.294Z,0
2016-11-05T01:35:45.264Z,0
2016-11-05T01:36:55.233Z,0
2016-11-05T01:38:05.189Z,0
2016-11-05T01:39:14.849Z,0
2016-11-05T01:40:24.819Z,0
2016-11-05T01:41:35.089Z,0
2016-11-05T01:42:45.059Z,0
2016-11-05T01:43:55.333Z,0
2016-11-05T01:45:05.338Z,0
2016-11-05T01:46:15.617Z,0
2016-11-05T01:47:25.898Z,0
2016-11-05T01:48:36.160Z,0
2016-11-05T01:49:46.122Z,0
2016-11-05T01:50:55.787Z,0
2016-11-05T01:52:05.744Z,0
2016-11-05T01:53:15.429Z,0
2016-11-05T01:54:25.441Z,0
2016-11-05T01:55:35.724Z,0
2016-11-05T01:56:46.034Z,0
2016-11-05T01:57:55.725Z,0
2016-11-05T01:59:05.699Z,0
2016-11-05T02:00:15.684Z,0
2016-11-05T02:01:25.028Z,0
2016-11-05T02:02:34.998Z,0
2016-11-05T02:03:44.955Z,0
2016-11-05T02:04:55.235Z,0
2016-11-05T02:06:05.229Z,0
2016-11-05T02:07:15.509Z,0
2016-11-05T02:08:25.506Z,0
2016-11-05T02:09:35.772Z,0
2016-11-05T02:10:45.436Z,0
2016-11-05T02:11:55.101Z,0
2016-11-05T02:13:05.108Z,0
2016-11-05T02:14:15.391Z,0
2016-11-05T02:15:25.081Z,0
2016-11-05T02:16:35.364Z,0
2016-11-05T02:17:45.321Z,0
2016-11-05T02:18:55.053Z,0
2016-11-05T02:20:04.718Z,0
2016-11-05T02:21:14.995Z,0
2016-11-05T02:22:25.261Z,0
2016-11-05T02:23:35.527Z,0
2016-11-05T02:24:45.789Z,0
2016-11-05T02:25:55.760Z,0
2016-11-05T02:27:06.047Z,0
2016-11-05T02:28:15.718Z,0
2016-11-05T02:29:26.037Z,0
2016-11-05T02:30:36.302Z,0
2016-11-05T02:31:46.266Z,0
2016-11-05T02:32:56.543Z,0
2016-11-05T02:34:06.827Z,0
2016-11-05T02:35:16.489Z,0
2016-11-05T02:36:26.454Z,0
2016-11-05T02:37:36.426Z,0
2016-11-05T02:38:46.393Z,0
2016-11-05T02:39:56.681Z,0
2016-11-05T02:41:06.976Z,0
2016-11-05T02:42:17.247Z,0
2016-11-05T02:43:26.945Z,0
2016-11-05T02:44:37.212Z,0
2016-11-05T02:45:47.499Z,0
2016-11-05T02:46:57.478Z,0
2016-11-05T02:48:07.135Z,0
2016-11-05T02:49:17.098Z,0
2016-11-05T02:50:27.378Z,0
2016-11-05T02:51:37.350Z,0
2016-11-05T02:52:47.019Z,0
2016-11-05T02:53:57.294Z,0
2016-11-05T02:55:07.266Z,0
2016-11-05T02:56:17.530Z,0
2016-11-05T02:57:27.550Z,0
2016-11-05T02:58:37.819Z,0
2016-11-05T02:59:47.798Z,0
2016-11-05T03:00:57.783Z,0
2016-11-05T03:32:28.100Z,0
2016-11-05T03:33:38.386Z,0
2016-11-05T03:34:48.383Z,0
2016-11-05T03:35:58.656Z,0
2016-11-05T03:37:08.621Z,0
2016-11-05T03:38:18.943Z,0
2016-11-05T03:39:29.224Z,0
2016-11-05T03:40:39.512Z,0
2016-11-05T03:41:49.193Z,0
2016-11-05T03:42:59.152Z,0
2016-11-05T03:44:09.421Z,0
2016-11-05T03:45:19.102Z,0
2016-11-05T03:46:29.075Z,0
2016-11-05T03:47:39.343Z,0
2016-11-05T03:48:49.627Z,0
2016-11-05T03:49:59.616Z,0
2016-11-05T03:51:09.582Z,0
2016-11-05T03:52:19.549Z,0
2016-11-05T03:53:29.220Z,0
2016-11-05T03:54:39.208Z,0
2016-11-05T03:55:48.874Z,0
2016-11-05T03:56:59.151Z,0
2016-11-05T03:58:09.109Z,0
2016-11-05T03:59:19.080Z,0
2016-11-05T04:00:29.062Z,0
2016-11-05T04:01:39.062Z,0
2016-11-05T04:02:49.350Z,0
2016-11-05T04:03:59.674Z,0
2016-11-05T04:05:09.653Z,0
2016-11-05T04:06:19.658Z,0
2016-11-05T04:07:29.624Z,0
2016-11-05T04:08:39.892Z,0
2016-11-05T04:09:50.159Z,0
2016-11-05T04:11:00.146Z,0
2016-11-05T04:12:10.107Z,0
2016-11-05T04:13:20.119Z,0
2016-11-05T04:14:30.401Z,0
2016-11-05T04:15:40.692Z,0
2016-11-05T04:16:50.999Z,0
2016-11-05T04:18:00.373Z,0
2016-11-05T04:19:10.659Z,0
2016-11-05T04:20:20.939Z,0
2016-11-05T04:21:30.922Z,0
2016-11-05T04:22:41.238Z,0
2016-11-05T04:23:51.513Z,0
2016-11-05T04:25:01.792Z,0
2016-11-05T04:26:12.079Z,0
2016-11-05T04:27:22.360Z,0
2016-11-05T04:28:32.626Z,0
2016-11-05T04:29:42.593Z,0
2016-11-05T04:30:52.280Z,0
2016-11-05T04:32:02.601Z,0
2016-11-05T04:33:12.269Z,0
2016-11-05T04:34:22.556Z,0
2016-11-05T04:35:32.557Z,0
2016-11-05T04:36:42.527Z,0
2016-11-05T04:37:52.809Z,0
2016-11-05T04:39:02.789Z,0
2016-11-05T04:40:12.789Z,0
2016-11-05T04:41:23.068Z,0
2016-11-05T04:42:33.342Z,0
2016-11-05T04:43:43.615Z,0
2016-11-05T04:44:53.891Z,0
2016-11-05T04:46:03.857Z,0
2016-11-05T04:47:14.135Z,0
2016-11-05T04:48:24.454Z,0
2016-11-05T04:49:34.453Z,0
2016-11-05T04:50:44.720Z,0
2016-11-05T04:51:54.080Z,0
2016-11-05T04:53:03.743Z,0
2016-11-05T04:54:14.029Z,0
2016-11-05T04:55:23.990Z,0
2016-11-05T04:56:33.956Z,0
2016-11-05T04:57:43.628Z,0
2016-11-05T04:58:53.900Z,0
2016-11-05T05:00:03.568Z,0
2016-11-05T05:01:13.222Z,0
2016-11-05T05:02:23.495Z,0
2016-11-05T05:03:33.791Z,0
2016-11-05T05:04:44.064Z,0
2016-11-05T05:05:54.346Z,0
2016-11-05T05:07:04.626Z,0
2016-11-05T05:08:14.589Z,0
2016-11-05T05:09:24.875Z,0
2016-11-05T05:10:34.862Z,0
2016-11-05T05:11:44.519Z,0
2016-11-05T05:12:54.501Z,0
2016-11-05T05:14:04.158Z,0
2016-11-05T05:15:14.459Z,0
2016-11-05T05:16:24.415Z,0
2016-11-05T05:17:34.072Z,0
2016-11-05T05:18:44.044Z,0
2016-11-05T05:19:54.016Z,0
2016-11-05T05:21:03.982Z,0
2016-11-05T05:22:14.275Z,0
2016-11-05T05:23:24.562Z,0
2016-11-05T05:24:34.827Z,0
2016-11-05T05:25:45.096Z,0
2016-11-05T05:26:55.375Z,0
2016-11-05T05:28:05.328Z,0
2016-11-05T05:29:15.300Z,0
2016-11-05T05:30:25.266Z,0
2016-11-05T05:31:35.547Z,0
2016-11-05T05:32:45.511Z,0
2016-11-05T05:33:55.793Z,0
2016-11-05T05:35:06.109Z,0
2016-11-05T05:36:16.086Z,0
2016-11-05T05:37:26.371Z,0
2016-11-05T05:38:35.737Z,0
2016-11-05T05:39:46.015Z,0
2016-11-05T05:40:56.011Z,0
2016-11-05T05:42:06.285Z,0
2016-11-05T05:43:16.577Z,0
2016-11-05T05:44:26.851Z,0
2016-11-05T05:45:36.822Z,0
2016-11-05T05:46:47.100Z,0
2016-11-05T05:47:57.067Z,0
2016-11-05T05:49:06.730Z,0
2016-11-05T05:50:16.685Z,0
2016-11-05T05:51:26.968Z,0
2016-11-05T05:52:36.942Z,0
2016-11-05T05:53:47.450Z,0
2016-11-05T05:54:57.413Z,0
2016-11-05T05:56:07.699Z,5
2016-11-05T05:57:17.706Z,5
2016-11-05T05:58:27.686Z,5
2016-11-05T05:59:37.357Z,5
2016-11-05T06:00:47.636Z,5
2016-11-05T06:01:57.906Z,5
2016-11-05T06:03:07.566Z,5
2016-11-05T06:04:17.538Z,5
2016-11-05T06:05:27.807Z,5
2016-11-05T06:06:38.083Z,5
2016-11-05T06:07:48.347Z,5
2016-11-05T06:08:58.627Z,10
2016-11-05T06:10:08.902Z,10
2016-11-05T06:11:19.204Z,10
2016-11-05T06:12:29.481Z,10
2016-11-05T06:13:39.152Z,10
2016-11-05T06:14:49.429Z,10
2016-11-05T06:15:59.392Z,15
2016-11-05T06:17:09.668Z,15
2016-11-05T06:18:19.322Z,10
2016-11-05T06:19:29.323Z,10
2016-11-05T06:20:39.295Z,10
2016-11-05T06:21:49.590Z,10
2016-11-05T06:22:59.866Z,10
2016-11-05T06:24:10.151Z,10
2016-11-05T06:25:20.427Z,10
2016-11-05T06:26:30.707Z,15
2016-11-05T06:27:40.668Z,15
2016-11-05T06:28:50.320Z,15
2016-11-05T06:30:00.286Z,15
2016-11-05T06:31:10.578Z,15
2016-11-05T06:32:20.881Z,15
2016-11-05T06:33:31.158Z,15
2016-11-05T06:34:41.445Z,15
2016-11-05T06:35:51.414Z,15
2016-11-05T06:37:01.706Z,15
2016-11-05T06:38:12.003Z,15
2016-11-05T06:39:21.984Z,20
2016-11-05T06:40:31.673Z,15
2016-11-05T06:41:41.962Z,15
2016-11-05T06:42:52.235Z,15
2016-11-05T06:44:01.891Z,20
2016-11-05T06:45:12.173Z,20
2016-11-05T06:46:22.445Z,15
2016-11-05T06:47:32.110Z,15
2016-11-05T06:48:42.387Z,20
2016-11-05T06:49:52.668Z,20
2016-11-05T06:51:02.956Z,20
2016-11-05T06:52:12.608Z,20
2016-11-05T06:53:22.594Z,20
2016-11-05T06:54:32.880Z,20
2016-11-05T06:55:42.858Z,25
2016-11-05T06:56:53.137Z,25
2016-11-05T06:58:03.104Z,25
2016-11-05T06:59:12.798Z,25
2016-11-05T07:00:22.459Z,25
2016-11-05T07:01:32.443Z,20
2016-11-05T07:02:42.406Z,20
2016-11-05T07:03:52.387Z,20
2016-11-05T07:05:02.363Z,20
2016-11-05T07:06:12.637Z,20
2016-11-05T07:07:22.927Z,20
2016-11-05T07:08:32.894Z,25
2016-11-05T07:09:43.203Z,25
2016-11-05T07:10:53.160Z,25
2016-11-05T07:12:03.439Z,25
2016-11-05T07:13:13.137Z,25
2016-11-05T07:14:23.127Z,30
2016-11-05T07:15:33.421Z,30
2016-11-05T07:16:43.716Z,30
2016-11-05T07:17:53.997Z,35
2016-11-05T07:19:04.309Z,35
2016-11-05T07:20:14.585Z,35
2016-11-05T07:21:24.561Z,40
2016-11-05T07:22:34.830Z,40
2016-11-05T07:23:45.096Z,35
2016-11-05T07:24:55.066Z,35
2016-11-05T07:26:05.368Z,40
2016-11-05T07:27:15.344Z,35
2016-11-05T07:28:25.310Z,35
2016-11-05T07:29:35.598Z,30
2016-11-05T07:30:45.570Z,35
2016-11-05T07:31:55.858Z,35
2016-11-05T07:33:05.829Z,35
2016-11-05T07:34:16.111Z,35
2016-11-05T07:35:26.437Z,35
2016-11-05T07:36:36.452Z,40
2016-11-05T07:37:46.734Z,40
2016-11-05T07:38:56.698Z,40
2016-11-05T07:40:06.675Z,45
2016-11-05T07:41:16.637Z,40
2016-11-05T07:42:26.608Z,45
2016-11-05T07:43:36.879Z,50
2016-11-05T07:44:47.155Z,50
2016-11-05T07:45:57.447Z,45
2016-11-05T07:47:07.733Z,50
2016-11-05T07:48:17.750Z,50
2016-11-05T07:49:27.423Z,45
2016-11-05T07:50:37.706Z,45
2016-11-05T07:51:48.017Z,45
2016-11-05T07:52:57.982Z,40
2016-11-05T07:54:07.940Z,45
2016-11-05T07:55:17.591Z,45
2016-11-05T07:56:27.570Z,45
2016-11-05T07:57:37.549Z,45
2016-11-05T07:58:47.550Z,50
2016-11-05T07:59:57.848Z,55
2016-11-05T08:01:08.136Z,55
2016-11-05T08:02:18.437Z,55
2016-11-05T08:03:28.733Z,60
2016-11-05T08:04:38.420Z,60
2016-11-05T08:05:48.705Z,50
2016-11-05T08:06:59.012Z,55
2016-11-05T08:08:09.295Z,65
2016-11-05T08:09:19.288Z,65
2016-11-05T08:10:29.253Z,65
2016-11-05T08:11:39.223Z,60
2016-11-05T08:12:48.932Z,50
2016-11-05T08:13:59.232Z,50
2016-11-05T08:15:08.900Z,55
2016-11-05T08:16:19.206Z,50
2016-11-05T08:17:28.549Z,55
2016-11-05T08:18:38.530Z,50
2016-11-05T08:19:48.806Z,50
2016-11-05T08:20:58.798Z,55
2016-11-05T08:22:09.084Z,55
2016-11-05T08:23:19.052Z,55
2016-11-05T08:24:29.023Z,55
2016-11-05T08:25:38.986Z,50
2016-11-05T08:26:49.273Z,50
2016-11-05T08:27:59.555Z,50
2016-11-05T08:29:09.832Z,45
2016-11-05T08:30:19.788Z,50
2016-11-05T08:31:30.094Z,55
2016-11-05T08:32:39.752Z,50
2016-11-05T08:33:49.731Z,50
2016-11-05T08:34:59.719Z,55
2016-11-05T08:36:08.751Z,60
2016-11-05T08:37:18.743Z,65
2016-11-05T08:38:28.420Z,70
2016-11-05T08:39:38.395Z,70
2016-11-05T08:40:48.687Z,65
2016-11-05T08:41:58.674Z,75
2016-11-05T08:43:08.336Z,70
2016-11-05T08:44:18.647Z,75
2016-11-05T08:45:28.638Z,70
2016-11-05T08:46:38.941Z,75
2016-11-05T08:47:48.914Z,75
2016-11-05T08:48:59.211Z,75
2016-11-05T08:50:09.183Z,75
2016-11-05T08:51:19.484Z,45
2016-11-05T08:52:29.804Z,75
2016-11-05T08:53:39.776Z,65
2016-11-05T08:54:50.062Z,45
2016-11-05T08:56:00.339Z,55
2016-11-05T08:57:10.302Z,50
2016-11-05T08:58:20.278Z,60
2016-11-05T08:59:30.250Z,70
2016-11-05T09:00:40.538Z,55
2016-11-05T09:01:50.216Z,60
2016-11-05T09:02:59.887Z,50
2016-11-05T09:04:10.181Z,60
2016-11-05T09:05:20.162Z,85
2016-11-05T09:06:30.137Z,85
2016-11-05T09:07:40.124Z,80
2016-11-05T09:08:50.218Z,75
2016-11-05T09:10:00.995Z,75
2016-11-05T09:11:10.986Z,70
2016-11-05T09:12:21.403Z,80
2016-11-05T09:13:31.257Z,75
2016-11-05T09:14:41.252Z,70
2016-11-05T09:15:51.254Z,65
2016-11-05T09:17:01.226Z,60
2016-11-05T09:18:10.910Z,60
2016-11-05T09:19:20.904Z,55
2016-11-05T09:20:31.216Z,55
2016-11-05T09:21:41.198Z,55
2016-11-05T09:22:50.919Z,55
2016-11-05T09:24:00.916Z,60
2016-11-05T09:25:11.323Z,60
2016-11-05T09:26:21.477Z,60
2016-11-05T09:27:31.775Z,70
2016-11-05T09:28:42.143Z,65
2016-11-05T09:29:52.136Z,65
2016-11-05T09:31:02.287Z,55
2016-11-05T09:32:12.289Z,60
2016-11-05T09:33:22.224Z,55
2016-11-05T09:34:32.531Z,60
2016-11-05T09:35:42.443Z,60
2016-11-05T09:36:52.427Z,60
2016-11-05T09:38:03.034Z,65
2016-11-05T09:39:13.341Z,65
2016-11-05T09:40:23.884Z,60
2016-11-05T09:41:33.261Z,60
2016-11-05T09:42:43.188Z,60
2016-11-05T09:43:53.525Z,60
2016-11-05T09:45:03.503Z,60
2016-11-05T09:46:14.015Z,60
2016-11-05T09:47:24.292Z,60
2016-11-05T09:48:34.256Z,70
2016-11-05T09:49:44.561Z,70
2016-11-05T09:50:54.560Z,70
2016-11-05T09:52:04.862Z,75
2016-11-05T09:53:15.193Z,75
2016-11-05T09:54:25.435Z,85
2016-11-05T09:55:35.732Z,85
2016-11-05T09:56:45.456Z,85
2016-11-05T09:57:56.128Z,90
2016-11-05T09:59:06.287Z,85
2016-11-05T10:00:16.285Z,80
2016-11-05T10:01:26.307Z,80
2016-11-05T10:02:36.287Z,80
2016-11-05T10:03:46.289Z,75
2016-11-05T10:04:56.572Z,80
2016-11-05T10:06:06.859Z,75
2016-11-05T10:07:17.140Z,80
2016-11-05T10:08:27.117Z,80
2016-11-05T10:09:36.796Z,80
2016-11-05T10:10:47.127Z,75
2016-11-05T10:11:57.413Z,70
2016-11-05T10:13:07.732Z,70
2016-11-05T10:14:18.015Z,65
2016-11-05T10:15:28.232Z,70
2016-11-05T10:16:38.228Z,75
2016-11-05T10:17:48.049Z,75
2016-11-05T10:18:58.404Z,75
2016-11-05T10:20:08.439Z,75
2016-11-05T10:21:18.766Z,70
2016-11-05T10:22:29.067Z,70
2016-11-05T10:23:39.395Z,75
2016-11-05T10:24:49.475Z,75
2016-11-05T10:25:59.484Z,70
2016-11-05T10:27:09.803Z,75
2016-11-05T10:28:20.107Z,75
2016-11-05T10:29:30.399Z,85
2016-11-05T10:30:40.374Z,85
2016-11-05T10:31:50.667Z,85
2016-11-05T10:33:00.975Z,80
2016-11-05T10:34:10.965Z,80
2016-11-05T10:35:21.267Z,85
2016-11-05T10:36:31.241Z,85
2016-11-05T10:37:41.551Z,85
2016-11-05T10:38:51.886Z,85
2016-11-05T10:40:01.577Z,80
2016-11-05T10:41:11.846Z,75
2016-11-05T10:42:21.862Z,75
2016-11-05T10:43:31.889Z,80
2016-11-05T10:44:42.195Z,85
2016-11-05T10:45:52.228Z,80
2016-11-05T10:47:02.537Z,80
2016-11-05T10:48:12.512Z,75
2016-11-05T10:49:22.507Z,80
2016-11-05T10:50:32.830Z,80
2016-11-05T10:51:43.208Z,75
2016-11-05T10:52:53.556Z,70
2016-11-05T10:54:03.244Z,70
2016-11-05T10:55:13.577Z,70
2016-11-05T10:56:23.901Z,75
2016-11-05T10:57:34.243Z,70
2016-11-05T10:58:44.246Z,70
2016-11-05T10:59:54.551Z,70
2016-11-05T11:01:04.607Z,70
2016-11-05T11:02:14.946Z,75
2016-11-05T11:03:24.039Z,80
2016-11-05T11:04:34.324Z,85
2016-11-05T11:05:44.311Z,85
2016-11-05T11:06:54.290Z,85
2016-11-05T11:08:04.337Z,85
2016-11-05T11:09:14.651Z,85
2016-11-05T11:10:24.946Z,85
2016-11-05T11:11:34.966Z,90
2016-11-05T11:12:44.370Z,90
2016-11-05T11:13:54.443Z,95
2016-11-05T11:15:04.738Z,85
2016-11-05T11:16:14.740Z,85
2016-11-05T11:17:25.048Z,80
2016-11-05T11:18:35.074Z,85
2016-11-05T11:19:45.060Z,85
2016-11-05T11:20:55.336Z,90
2016-11-05T11:22:05.003Z,90
2016-11-05T11:23:15.299Z,90
2016-11-05T11:24:25.626Z,85
2016-11-05T11:25:35.618Z,90
2016-11-05T11:26:45.599Z,85
2016-11-05T11:27:55.878Z,80
2016-11-05T11:29:05.546Z,75
2016-11-05T11:30:15.878Z,70
2016-11-05T11:31:26.172Z,70
2016-11-05T11:32:35.882Z,70
2016-11-05T11:33:45.859Z,70
2016-11-05T11:34:55.849Z,75
2016-11-05T11:36:05.555Z,75
2016-11-05T11:37:15.235Z,70
2016-11-05T11:38:25.567Z,75
2016-11-05T11:39:35.261Z,70
2016-11-05T11:40:45.458Z,75
2016-11-05T11:41:58.866Z,65
2016-11-05T11:43:09.889Z,65
2016-11-05T11:44:19.569Z,65
2016-11-05T11:45:29.589Z,70
2016-11-05T11:46:39.588Z,75
2016-11-05T11:47:49.890Z,80
2016-11-05T11:48:59.268Z,80
2016-11-05T11:50:09.569Z,85
2016-11-05T11:51:19.919Z,80
2016-11-05T11:52:30.265Z,80
2016-11-05T11:53:40.270Z,80
2016-11-05T11:54:49.966Z,80
2016-11-05T11:55:59.975Z,80
2016-11-05T11:57:10.289Z,80
2016-11-05T11:58:20.291Z,80
2016-11-05T11:59:30.597Z,80
2016-11-05T12:00:40.603Z,85
2016-11-05T12:01:50.931Z,85
2016-11-05T12:03:00.927Z,80
2016-11-05T12:04:11.226Z,70
2016-11-05T12:05:21.521Z,65
2016-11-05T12:06:31.835Z,65
2016-11-05T12:07:41.827Z,70
2016-11-05T12:08:51.815Z,70
2016-11-05T12:10:01.514Z,70
2016-11-05T12:11:11.524Z,75
2016-11-05T12:12:21.841Z,75
2016-11-05T12:13:32.144Z,75
2016-11-05T12:14:42.465Z,80
2016-11-05T12:15:52.143Z,75
2016-11-05T12:17:02.128Z,70
2016-11-05T12:18:12.135Z,75
2016-11-05T12:19:22.120Z,80
2016-11-05T12:20:32.440Z,80
2016-11-05T12:21:42.750Z,80
2016-11-05T12:22:53.066Z,85
2016-11-05T12:24:04.388Z,95
2016-11-05T12:25:19.563Z,95
2016-11-05T12:26:32.971Z,85
2016-11-05T12:27:45.614Z,80
2016-11-05T12:28:59.004Z,85
2016-11-05T12:30:12.806Z,80
2016-11-05T12:31:25.218Z,85
2016-11-05T12:32:38.042Z,95
2016-11-05T12:33:52.123Z,100
2016-11-05T12:35:05.766Z,85
2016-11-05T12:36:15.922Z,90
2016-11-05T12:37:26.222Z,85
2016-11-05T12:38:36.207Z,80
2016-11-05T12:39:46.514Z,85
2016-11-05T12:40:56.798Z,95
2016-11-05T12:42:07.101Z,95
2016-11-05T12:43:17.405Z,95
2016-11-05T12:44:27.698Z,95
2016-11-05T12:45:38.123Z,95
2016-11-05T12:46:48.405Z,90
2016-11-05T12:47:58.771Z,95
2016-11-05T12:49:09.158Z,100
2016-11-05T12:50:19.161Z,105
2016-11-05T12:51:29.477Z,105
2016-11-05T12:52:40.085Z,100
2016-11-05T12:53:50.065Z,95
2016-11-05T12:55:00.058Z,95
2016-11-05T12:56:10.358Z,95
2016-11-05T12:57:20.347Z,100
2016-11-05T12:58:30.318Z,100
2016-11-05T12:59:40.350Z,90
2016-11-05T13:00:50.387Z,85
2016-11-05T13:02:00.683Z,80
2016-11-05T13:03:10.694Z,80
2016-11-05T13:04:20.673Z,90
2016-11-05T13:05:30.654Z,95
2016-11-05T13:06:40.340Z,100
2016-11-05T13:07:50.352Z,100
2016-11-05T13:09:00.342Z,100
2016-11-05T13:10:10.722Z,100
2016-11-05T13:11:20.400Z,100
2016-11-05T13:12:30.724Z,95
2016-11-05T13:13:41.039Z,95
2016-11-05T13:14:51.327Z,95
2016-11-05T13:16:01.614Z,105
2016-11-05T13:17:11.616Z,105
2016-11-05T13:18:21.906Z,105
2016-11-05T13:19:31.896Z,105
2016-11-05T13:20:41.590Z,110
2016-11-05T13:21:51.254Z,110
2016-11-05T13:23:01.545Z,110
2016-11-05T13:24:11.550Z,105
2016-11-05T13:25:21.575Z,105
2016-11-05T13:26:31.545Z,105
2016-11-05T13:27:41.568Z,105
2016-11-05T13:28:51.862Z,100
2016-11-05T13:30:01.232Z,95
2016-11-05T13:31:11.526Z,90
2016-11-05T13:32:21.845Z,90
2016-11-05T13:33:32.189Z,85
2016-11-05T13:34:41.876Z,80
2016-11-05T13:35:52.214Z,80
2016-11-05T13:37:02.194Z,80
2016-11-05T13:38:12.187Z,80
2016-11-05T13:39:22.487Z,80
2016-11-05T13:40:32.479Z,80
2016-11-05T13:41:42.790Z,80
2016-11-05T13:42:53.093Z,80
2016-11-05T13:44:02.767Z,85
2016-11-05T13:45:13.095Z,80
2016-11-05T13:46:23.392Z,85
2016-11-05T13:47:33.707Z,85
2016-11-05T13:48:43.717Z,80
2016-11-05T13:49:53.704Z,80
2016-11-05T13:51:03.705Z,80
2016-11-05T13:52:14.010Z,80
2016-11-05T13:53:23.991Z,75
2016-11-05T13:54:34.303Z,75
2016-11-05T13:55:44.591Z,75
2016-11-05T13:56:54.581Z,75
2016-11-05T13:58:04.884Z,70
2016-11-05T13:59:14.906Z,70
2016-11-05T14:00:25.256Z,70
2016-11-05T14:01:35.538Z,70
2016-11-05T14:02:45.849Z,70
2016-11-05T14:03:56.186Z,65
2016-11-05T14:05:06.493Z,70
2016-11-05T14:06:16.494Z,70
2016-11-05T14:07:26.802Z,70
2016-11-05T14:08:36.799Z,70
2016-11-05T14:09:47.105Z,75
2016-11-05T14:10:56.821Z,75
2016-11-05T14:12:07.155Z,80
2016-11-05T14:13:17.482Z,80
2016-11-05T14:14:27.467Z,85
2016-11-05T14:15:37.459Z,85
2016-11-05T14:16:47.442Z,90
2016-11-05T14:17:57.756Z,85
2016-11-05T14:19:08.063Z,80
2016-11-05T14:20:18.051Z,80
2016-11-05T14:21:28.382Z,80
2016-11-05T14:22:38.385Z,75
2016-11-05T14:23:48.694Z,70
2016-11-05T14:24:58.990Z,65
2016-11-05T14:26:08.678Z,60
2016-11-05T14:27:18.361Z,60
2016-11-05T14:28:28.356Z,55
2016-11-05T14:29:38.349Z,50
2016-11-05T14:30:48.645Z,50
2016-11-05T14:31:58.003Z,50
2016-11-05T14:33:07.988Z,50
2016-11-05T14:34:17.970Z,50
2016-11-05T14:35:27.965Z,45
2016-11-05T14:36:38.296Z,45
2016-11-05T14:37:48.295Z,40
2016-11-05T14:38:57.949Z,40
2016-11-05T14:40:08.237Z,40
2016-11-05T14:41:17.902Z,35
2016-11-05T14:42:27.267Z,35
2016-11-05T14:43:37.564Z,30
2016-11-05T14:44:47.251Z,30
2016-11-05T14:45:57.556Z,30
2016-11-05T14:47:07.562Z,30
2016-11-05T14:48:17.567Z,25
2016-11-05T14:49:27.243Z,25
2016-11-05T14:50:37.540Z,25
2016-11-05T14:51:47.536Z,25
2016-11-05T14:52:57.297Z,20
2016-11-05T14:54:07.593Z,20
2016-11-05T14:55:17.275Z,20
2016-11-05T14:56:27.254Z,15
2016-11-05T14:57:37.561Z,15
2016-11-05T14:58:47.865Z,15
2016-11-05T14:59:57.532Z,10
2016-11-05T15:01:07.204Z,10
2016-11-05T15:02:17.495Z,10
2016-11-05T15:03:27.488Z,10
2016-11-05T15:04:37.805Z,10
2016-11-05T15:05:47.783Z,10
2016-11-05T15:06:57.458Z,10
2016-11-05T15:08:07.756Z,5
2016-11-05T15:09:18.075Z,5
2016-11-05T15:10:28.367Z,5
2016-11-05T15:11:38.707Z,5
2016-11-05T15:12:48.697Z,5
2016-11-05T15:13:58.991Z,5
2016-11-05T15:15:08.968Z,5
2016-11-05T15:16:19.254Z,5
2016-11-05T15:17:29.555Z,5
2016-11-05T15:18:39.543Z,5
2016-11-05T15:19:49.535Z,5
2016-11-05T15:20:59.839Z,5
2016-11-05T15:22:09.843Z,0
2016-11-05T15:23:19.830Z,0
2016-11-05T15:24:30.111Z,0
2016-11-05T15:25:40.416Z,0
2016-11-05T15:26:50.417Z,0
2016-11-05T15:28:00.715Z,0
2016-11-05T15:29:11.004Z,0
2016-11-05T15:30:20.798Z,0
2016-11-05T15:31:31.103Z,0
2016-11-05T15:32:41.431Z,0
2016-11-05T15:33:51.425Z,0
2016-11-05T15:35:01.421Z,0
2016-11-05T15:36:11.711Z,0
2016-11-05T15:37:21.693Z,0
2016-11-05T15:38:31.713Z,0
2016-11-05T15:39:41.709Z,0
2016-11-05T15:40:51.407Z,0
2016-11-05T15:42:01.718Z,0
2016-11-05T15:43:12.041Z,0
2016-11-05T15:44:22.028Z,0
2016-11-05T15:45:32.018Z,0
2016-11-05T15:46:42.028Z,0
2016-11-05T15:47:52.338Z,0
2016-11-05T15:49:02.653Z,0
2016-11-05T15:50:12.953Z,0
2016-11-05T15:51:22.982Z,0
2016-11-05T15:52:33.301Z,0
2016-11-05T15:53:42.973Z,0
2016-11-05T15:54:52.959Z,0
2016-11-05T15:56:02.626Z,0
2016-11-05T15:57:12.629Z,0
2016-11-05T15:58:22.032Z,0
2016-11-05T15:59:32.334Z,0
2016-11-05T16:00:42.655Z,0
2016-11-05T16:01:52.942Z,0
2016-11-05T16:03:02.616Z,0
2016-11-05T16:04:12.960Z,0
2016-11-05T16:05:23.251Z,0
2016-11-05T16:06:33.562Z,0
2016-11-05T16:07:43.569Z,0
2016-11-05T16:08:53.866Z,0
2016-11-05T16:10:03.564Z,0
2016-11-05T16:11:13.554Z,0
2016-11-05T16:12:23.847Z,0
2016-11-05T16:13:33.537Z,0
2016-11-05T16:14:43.855Z,0
2016-11-05T16:15:54.144Z,0
2016-11-05T16:17:03.820Z,0
2016-11-05T16:18:14.127Z,0
2016-11-05T16:19:24.508Z,0
2016-11-05T16:20:34.546Z,0
2016-11-05T16:21:44.774Z,0
2016-11-05T16:22:55.076Z,0
2016-11-05T16:24:05.391Z,0
2016-11-05T16:25:15.664Z,0
2016-11-05T16:26:25.954Z,0
2016-11-05T16:27:35.655Z,0
2016-11-05T16:28:45.374Z,0
2016-11-05T16:29:55.385Z,0
2016-11-05T16:31:05.682Z,0
2016-11-05T16:32:15.685Z,0
2016-11-05T16:33:25.689Z,0
2016-11-05T16:34:35.677Z,0
2016-11-05T16:35:45.668Z,0
2016-11-05T16:36:55.667Z,0
2016-11-05T16:38:05.966Z,0
2016-11-05T16:39:15.636Z,0
2016-11-05T16:40:25.635Z,0
2016-11-05T16:41:35.346Z,0
2016-11-05T16:42:45.026Z,0
2016-11-05T16:43:55.316Z,0
2016-11-05T16:45:04.998Z,0
2016-11-05T16:46:14.689Z,0
2016-11-05T16:47:24.370Z,0
2016-11-05T16:48:34.072Z,0
2016-11-05T16:49:44.056Z,0
2016-11-05T16:50:54.365Z,0
2016-11-05T16:52:04.687Z,0
2016-11-05T16:53:14.996Z,0
2016-11-05T16:54:25.283Z,0
2016-11-05T16:55:35.579Z,0
2016-11-05T16:56:45.593Z,0
2016-11-05T16:57:55.602Z,0
2016-11-05T16:59:05.900Z,0
2016-11-05T17:00:16.244Z,0
2016-11-05T17:01:26.532Z,0
2016-11-05T17:02:36.573Z,0
2016-11-05T17:03:46.890Z,0
2016-11-05T17:04:56.887Z,0
2016-11-05T17:06:07.175Z,0
2016-11-05T17:07:17.507Z,0
2016-11-05T17:08:27.835Z,0
2016-11-05T17:09:37.837Z,0
2016-11-05T17:10:47.830Z,0
2016-11-05T17:11:57.819Z,0
2016-11-05T17:13:08.089Z,0
2016-11-05T17:14:18.080Z,0
2016-11-05T17:15:28.097Z,0
2016-11-05T17:16:38.404Z,0
2016-11-05T17:17:48.719Z,0
2016-11-05T17:18:59.008Z,0
2016-11-05T17:20:08.964Z,0
2016-11-05T17:21:18.962Z,0
2016-11-05T17:22:29.248Z,0
2016-11-05T17:23:39.549Z,0
2016-11-05T17:24:49.143Z,0
2016-11-05T17:25:59.137Z,0
2016-11-05T17:27:09.430Z,0